Time;durP1;ratioP1;P1;durP2;ratioP2;P2;SDS_P1;SDS_P2;PMS_P1;PMS_P2;Temp;Humidity;BMP_temperature;BMP_pressure;BME280_temperature;BME280_humidity;BME280_pressure;Samples;Min_cycle;Max_cycle;Signal;HPM_P1;HPM_P2
2022/04/25 00:02:10;;;;;;;22.17;11.07;;;;;;;7.99;100.00;99209.91;4501589;31;20490;-71
2022/04/25 00:04:38;;;;;;;17.65;9.27;;;;;;;7.98;100.00;99213.41;4501619;31;20369;-71
2022/04/25 00:07:05;;;;;;;16.12;9.30;;;;;;;8.04;100.00;99214.16;4486313;31;20112;-71
2022/04/25 00:09:32;;;;;;;16.00;8.27;;;;;;;8.04;100.00;99211.53;4501434;31;20416;-71
2022/04/25 00:11:59;;;;;;;20.33;8.98;;;;;;;8.05;100.00;99215.87;4501331;31;20174;-71
2022/04/25 00:14:26;;;;;;;17.23;9.15;;;;;;;7.94;100.00;99212.59;4501389;31;20432;-71
2022/04/25 00:16:56;;;;;;;15.43;8.93;;;;;;;7.93;100.00;99210.03;4501669;31;20092;-71
2022/04/25 00:19:23;;;;;;;21.05;8.82;;;;;;;7.90;100.00;99208.31;4501432;31;20436;-71
2022/04/25 00:21:53;;;;;;;15.38;8.82;;;;;;;7.92;100.00;99205.69;4501387;31;20379;-71
2022/04/25 00:24:21;;;;;;;15.65;8.85;;;;;;;7.89;100.00;99211.84;4501241;31;20079;-71
2022/04/25 00:26:48;;;;;;;18.60;9.82;;;;;;;7.85;100.00;99202.31;4501190;31;20548;-71
2022/04/25 00:29:15;;;;;;;20.00;9.35;;;;;;;7.84;100.00;99208.44;4501340;31;20099;-71
2022/04/25 00:31:43;;;;;;;19.45;9.23;;;;;;;7.85;100.00;99207.56;4501143;31;20498;-71
2022/04/25 00:34:11;;;;;;;13.55;8.43;;;;;;;7.84;100.00;99200.56;4501277;31;20162;-71
2022/04/25 00:36:38;;;;;;;14.30;7.82;;;;;;;7.85;100.00;99208.41;4501148;31;20357;-71
2022/04/25 00:39:05;;;;;;;16.70;7.60;;;;;;;7.87;100.00;99211.00;4501124;31;20159;-71
2022/04/25 00:41:33;;;;;;;17.73;7.25;;;;;;;7.89;100.00;99199.59;4501113;31;20147;-71
2022/04/25 00:44:00;;;;;;;18.40;7.65;;;;;;;7.95;100.00;99198.63;4501312;31;20118;-71
2022/04/25 00:46:27;;;;;;;11.95;7.62;;;;;;;7.99;100.00;99200.28;4501013;31;20514;-71
2022/04/25 00:48:55;;;;;;;16.67;8.43;;;;;;;8.02;100.00;99205.47;4501225;31;20092;-70
2022/04/25 00:51:22;;;;;;;12.48;7.32;;;;;;;8.04;100.00;99197.56;4501022;31;20159;-71
2022/04/25 00:53:49;;;;;;;18.55;7.87;;;;;;;8.09;100.00;99208.81;4500983;31;20095;-71
2022/04/25 00:56:17;;;;;;;11.02;6.78;;;;;;;8.22;100.00;99206.78;4501179;31;20116;-71
2022/04/25 00:58:45;;;;;;;12.82;7.30;;;;;;;8.23;100.00;99213.75;4500995;31;20103;-71
2022/04/25 01:01:13;;;;;;;11.10;6.30;;;;;;;8.36;100.00;99215.25;4501261;31;20111;-71
2022/04/25 01:03:41;;;;;;;10.60;7.18;;;;;;;8.60;100.00;99206.84;4500834;31;20133;-71
2022/04/25 01:06:08;;;;;;;9.00;6.18;;;;;;;8.76;100.00;99209.13;4500686;31;20145;-71
2022/04/25 01:08:37;;;;;;;12.02;5.55;;;;;;;8.84;100.00;99208.06;4501012;31;20110;-70
2022/04/25 01:11:05;;;;;;;8.60;5.00;;;;;;;9.02;100.00;99219.03;4500719;31;20159;-71
2022/04/25 01:13:32;;;;;;;9.13;4.80;;;;;;;9.16;100.00;99219.56;4500915;31;20125;-71
2022/04/25 01:16:00;;;;;;;9.35;4.40;;;;;;;9.34;100.00;99221.72;4500596;31;20542;-71
2022/04/25 01:18:27;;;;;;;6.22;4.45;;;;;;;9.52;100.00;99220.38;4501820;31;20525;-71
2022/04/25 01:20:56;;;;;;;8.52;4.40;;;;;;;9.57;100.00;99217.59;4502846;31;20083;-71
2022/04/25 01:28:58;;;;;;;10.95;4.60;;;;;;;9.97;100.00;99227.94;4502722;31;20087;-71
2022/04/25 01:31:26;;;;;;;10.20;4.05;;;;;;;10.00;100.00;99229.59;4502662;31;20465;-70
2022/04/25 01:33:53;;;;;;;9.07;3.60;;;;;;;10.07;100.00;99231.16;4502516;31;20100;-71
2022/04/25 01:36:24;;;;;;;6.22;3.58;;;;;;;10.08;100.00;99229.41;4502595;31;20865;-71
2022/04/25 01:38:52;;;;;;;11.93;5.12;;;;;;;10.11;100.00;99226.69;4502770;31;20130;-70
2022/04/25 01:41:20;;;;;;;12.90;6.68;;;;;;;10.08;100.00;99237.28;4502503;31;20427;-71
2022/04/25 01:43:47;;;;;;;13.55;6.75;;;;;;;9.57;100.00;99236.88;4502635;31;20118;-71
2022/04/25 01:46:14;;;;;;;14.25;6.05;;;;;;;9.21;100.00;99233.44;4502396;31;20215;-70
2022/04/25 01:48:41;;;;;;;12.43;6.78;;;;;;;9.13;100.00;99234.53;4502525;31;20096;-71
2022/04/25 01:51:10;;;;;;;8.95;6.07;;;;;;;9.03;100.00;99226.84;4502626;31;20096;-71
2022/04/25 01:53:38;;;;;;;16.80;7.15;;;;;;;8.95;100.00;99226.19;4502467;31;20541;-71
2022/04/25 01:56:05;;;;;;;13.82;6.87;;;;;;;8.92;100.00;99228.03;4502358;31;20123;-71
2022/04/25 01:58:32;;;;;;;12.45;6.93;;;;;;;8.91;100.00;99224.53;4502340;31;20539;-71
2022/04/25 02:01:00;;;;;;;13.05;7.18;;;;;;;8.93;100.00;99225.34;4502383;31;20109;-71
2022/04/25 02:03:27;;;;;;;12.10;6.50;;;;;;;8.94;100.00;99216.59;4502377;31;20107;-71
2022/04/25 02:05:55;;;;;;;9.38;6.18;;;;;;;8.87;100.00;99220.25;4502362;31;20144;-71
2022/04/25 02:08:22;;;;;;;13.93;6.43;;;;;;;8.82;100.00;99217.72;4502486;31;20091;-71
2022/04/25 02:11:19;;;;;;;10.32;6.93;;;;;;;8.84;100.00;99213.31;4502275;31;20524;-71
2022/04/25 02:13:36;;;;;;;16.20;7.20;;;;;;;8.84;100.00;99212.44;4502358;31;20079;-71
2022/04/25 02:16:04;;;;;;;12.43;6.37;;;;;;;8.85;100.00;99209.78;4502296;31;20423;-71
2022/04/25 02:18:31;;;;;;;11.40;5.65;;;;;;;8.90;100.00;99217.53;4502262;31;20152;-71
2022/04/25 02:20:59;;;;;;;11.68;6.30;;;;;;;8.92;100.00;99213.12;4502223;31;20096;-71
2022/04/25 02:23:26;;;;;;;11.98;6.53;;;;;;;8.89;100.00;99215.81;4487428;31;20175;-71
2022/04/25 02:25:53;;;;;;;12.35;6.78;;;;;;;8.98;100.00;99214.75;4502053;31;20127;-71
2022/04/25 02:28:20;;;;;;;11.12;6.32;;;;;;;8.98;100.00;99223.50;4502012;31;20123;-70
2022/04/25 02:30:47;;;;;;;14.50;6.32;;;;;;;8.95;100.00;99225.31;4502345;31;20120;-71
2022/04/25 02:33:15;;;;;;;9.68;6.72;;;;;;;9.03;100.00;99223.37;4502096;31;20144;-71
2022/04/25 02:35:42;;;;;;;12.82;6.53;;;;;;;9.02;100.00;99226.91;4502145;31;20501;-71
2022/04/25 02:38:10;;;;;;;11.63;5.57;;;;;;;8.98;100.00;99220.00;4502156;31;20557;-70
2022/04/25 02:40:37;;;;;;;20.05;6.45;;;;;;;8.96;100.00;99222.66;4502127;31;20118;-71
2022/04/25 02:43:05;;;;;;;10.77;6.22;;;;;;;8.94;100.00;99226.19;4502077;31;20135;-71
2022/04/25 02:45:32;;;;;;;13.00;6.30;;;;;;;8.97;100.00;99234.88;4501986;31;20126;-71
2022/04/25 02:47:59;;;;;;;12.15;6.50;;;;;;;9.01;100.00;99233.03;4502267;31;20165;-71
2022/04/25 02:50:26;;;;;;;11.20;6.25;;;;;;;8.96;100.00;99235.78;4501975;31;20615;-71
2022/04/25 02:52:54;;;;;;;19.42;6.60;;;;;;;8.91;100.00;99247.31;4502113;31;20096;-70
2022/04/25 02:55:21;;;;;;;13.43;6.72;;;;;;;8.88;100.00;99247.37;4501958;31;20127;-71
2022/04/25 02:57:48;;;;;;;12.75;6.07;;;;;;;8.90;100.00;99250.81;4502133;31;20508;-71
2022/04/25 03:00:16;;;;;;;13.15;5.40;;;;;;;8.97;100.00;99263.78;4501946;31;20095;-71
2022/04/25 03:02:43;;;;;;;12.43;5.57;;;;;;;9.02;100.00;99263.69;4502064;31;20594;-71
2022/04/25 03:05:10;;;;;;;12.30;6.20;;;;;;;9.11;100.00;99279.22;4501809;31;20151;-71
2022/04/25 03:07:38;;;;;;;10.40;6.60;;;;;;;9.15;100.00;99280.00;4501891;31;20104;-71
2022/04/25 03:10:05;;;;;;;9.70;6.10;;;;;;;9.14;100.00;99273.91;4501935;31;20126;-71
2022/04/25 03:12:34;;;;;;;10.90;5.32;;;;;;;9.07;100.00;99280.19;4501888;31;20110;-71
2022/04/25 03:15:01;;;;;;;9.88;4.72;;;;;;;9.13;100.00;99272.19;4501982;31;20103;-71
2022/04/25 03:17:29;;;;;;;6.85;4.82;;;;;;;9.20;100.00;99268.50;4501959;31;20107;-71
2022/04/25 03:19:56;;;;;;;9.82;5.82;;;;;;;9.29;100.00;99278.81;4502071;31;20131;-71
2022/04/25 03:22:24;;;;;;;8.52;4.65;;;;;;;9.38;100.00;99284.72;4501809;31;20126;-71
2022/04/25 03:24:51;;;;;;;3.87;2.80;;;;;;;9.46;100.00;99288.88;4501663;31;20551;-71
2022/04/25 03:27:19;;;;;;;4.43;3.12;;;;;;;9.55;100.00;99282.53;4501731;31;20115;-71
2022/04/25 03:29:46;;;;;;;5.05;2.45;;;;;;;9.68;100.00;99283.06;4502002;31;20484;-71
2022/04/25 03:32:13;;;;;;;9.35;2.60;;;;;;;9.80;100.00;99280.16;4501825;31;20122;-70
2022/04/25 03:34:41;;;;;;;5.43;2.10;;;;;;;9.95;100.00;99281.50;4501760;31;20368;-70
2022/04/25 03:37:11;;;;;;;4.50;2.30;;;;;;;10.01;99.86;99282.19;4501801;31;20194;-71
2022/04/25 03:39:38;;;;;;;2.22;1.92;;;;;;;10.03;99.29;99282.13;4501388;31;20114;-71
2022/04/25 03:42:06;;;;;;;6.43;2.22;;;;;;;10.04;99.32;99286.53;4501398;31;20088;-71
2022/04/25 03:44:33;;;;;;;5.32;2.12;;;;;;;10.01;99.55;99286.59;4486688;31;20100;-71
2022/04/25 03:47:01;;;;;;;4.07;2.35;;;;;;;10.00;99.79;99280.47;4501742;31;20100;-71
2022/04/25 03:49:28;;;;;;;5.37;1.80;;;;;;;10.02;100.00;99278.66;4501832;31;20144;-71
2022/04/25 03:51:55;;;;;;;6.85;2.30;;;;;;;9.96;100.00;99280.59;4501685;31;20096;-71
2022/04/25 03:57:12;;;;;;;5.57;2.55;;;;;;;9.77;100.00;99277.59;4501139;31;20155;-71
2022/04/25 03:59:39;;;;;;;7.18;2.45;;;;;;;9.74;100.00;99275.91;4501661;31;20080;-71
2022/04/25 04:02:07;;;;;;;5.82;2.92;;;;;;;9.76;100.00;99278.50;4499201;31;20080;-71
2022/04/25 04:04:34;;;;;;;5.90;2.20;;;;;;;9.83;100.00;99274.81;4485463;31;20205;-71
2022/04/25 04:07:02;;;;;;;5.47;1.87;;;;;;;9.87;100.00;99280.84;4501395;31;20095;-71
2022/04/25 04:09:47;;;;;;;3.30;1.90;;;;;;;9.91;100.00;99282.50;4501218;31;20114;-70
2022/04/25 04:12:16;;;;;;;7.47;1.40;;;;;;;9.94;100.00;99283.28;4501362;31;20071;-71
2022/04/25 04:14:44;;;;;;;4.15;1.30;;;;;;;10.09;98.96;99281.12;4501450;31;20502;-71
2022/04/25 04:17:12;;;;;;;1.30;1.20;;;;;;;10.25;97.17;99282.44;4501298;31;20108;-71
2022/04/25 04:19:39;;;;;;;2.37;1.30;;;;;;;10.38;94.45;99289.09;4486661;31;20472;-71
2022/04/25 04:22:07;;;;;;;1.80;1.17;;;;;;;10.41;93.08;99288.16;4501236;31;20096;-71
2022/04/25 04:24:37;;;;;;;2.53;1.20;;;;;;;10.42;93.92;99298.63;4501192;31;20505;-71
2022/04/25 04:27:05;;;;;;;5.12;1.60;;;;;;;10.42;93.61;99303.88;4501213;31;20080;-70
2022/04/25 04:29:34;;;;;;;3.80;1.33;;;;;;;10.41;92.99;99296.03;4501247;31;20092;-71
2022/04/25 04:32:05;;;;;;;4.20;1.42;;;;;;;10.37;93.93;99297.03;4501057;31;20481;-71
2022/04/25 04:34:34;;;;;;;3.67;1.27;;;;;;;10.35;93.59;99299.69;4501091;31;20083;-71
2022/04/25 04:37:04;;;;;;;4.50;1.60;;;;;;;10.37;94.17;99302.31;4501101;31;20099;-71
2022/04/25 04:39:32;;;;;;;9.90;2.50;;;;;;;10.43;94.62;99308.28;4501071;31;20115;-71
2022/04/25 04:41:59;;;;;;;2.87;1.50;;;;;;;10.50;94.14;99303.69;4500957;31;20486;-71
2022/04/25 04:44:26;;;;;;;6.47;1.42;;;;;;;10.66;93.28;99301.47;4501117;31;20103;-71
2022/04/25 04:46:55;;;;;;;8.35;2.08;;;;;;;10.79;91.85;99299.34;4501016;31;20091;-71
2022/04/25 04:49:22;;;;;;;7.40;1.85;;;;;;;10.94;93.23;99304.12;4500777;31;20481;-71
2022/04/25 04:51:49;;;;;;;3.15;1.60;;;;;;;11.05;93.61;99302.03;4500790;31;20151;-71
2022/04/25 04:54:16;;;;;;;6.93;2.10;;;;;;;11.14;90.93;99311.44;4501277;31;20152;-71
2022/04/25 04:56:44;;;;;;;7.03;1.98;;;;;;;11.21;90.32;99316.47;4508714;31;20568;-71
2022/04/25 04:59:11;;;;;;;4.43;1.50;;;;;;;11.31;88.42;99321.41;4500358;31;20588;-71
2022/04/25 05:01:38;;;;;;;3.10;1.30;;;;;;;11.40;88.45;99314.09;4507484;31;20507;-71
2022/04/25 05:04:05;;;;;;;8.23;1.40;;;;;;;11.39;88.02;99307.09;4502636;31;20095;-71
2022/04/25 05:06:33;;;;;;;2.60;1.60;;;;;;;11.44;87.31;99310.44;4500179;31;20129;-71
2022/04/25 05:09:01;;;;;;;5.07;1.40;;;;;;;11.48;87.58;99316.47;4505666;31;20771;-71
2022/04/25 05:11:30;;;;;;;14.85;2.35;;;;;;;11.47;86.50;99327.94;4510002;31;20095;-71
2022/04/25 05:13:59;;;;;;;6.53;1.77;;;;;;;11.43;86.78;99319.25;4511993;31;20131;-71
2022/04/25 05:16:27;;;;;;;3.90;2.22;;;;;;;11.42;87.29;99317.56;4510594;31;20107;-71
2022/04/25 05:18:55;;;;;;;9.32;2.58;;;;;;;11.36;87.18;99324.78;4516784;31;20079;-71
2022/04/25 05:21:23;;;;;;;2.00;1.80;;;;;;;11.33;87.82;99319.62;4501549;31;20087;-71
2022/04/25 05:23:52;;;;;;;9.70;1.98;;;;;;;11.29;87.87;99318.84;4515684;31;20156;-71
2022/04/25 05:26:19;;;;;;;3.45;1.55;;;;;;;11.36;87.89;99323.00;4507519;31;20226;-71
2022/04/25 05:28:46;;;;;;;4.00;1.52;;;;;;;11.38;86.78;99328.25;4513561;31;20087;-71
2022/04/25 05:31:14;;;;;;;3.65;1.75;;;;;;;11.37;88.24;99329.16;4507158;31;20748;-71
2022/04/25 05:33:41;;;;;;;5.43;2.00;;;;;;;11.48;88.43;99334.94;4508611;31;20137;-71
2022/04/25 05:36:08;;;;;;;9.50;2.20;;;;;;;11.38;87.76;99341.44;4513681;31;20434;-71
2022/04/25 05:38:37;;;;;;;3.33;1.73;;;;;;;11.37;88.46;99337.91;4507275;31;20820;-71
2022/04/25 05:41:04;;;;;;;5.22;1.62;;;;;;;11.31;88.90;99337.25;4507337;31;20118;-71
2022/04/25 05:43:31;;;;;;;2.85;1.92;;;;;;;11.31;88.35;99340.78;4499230;31;20163;-71
2022/04/25 05:45:59;;;;;;;3.05;1.62;;;;;;;11.42;88.99;99343.06;4501133;31;20115;-71
2022/04/25 05:53:58;;;;;;;6.78;2.15;;;;;;;11.54;86.83;99355.00;4507763;31;20162;-71
2022/04/25 05:56:26;;;;;;;7.68;1.23;;;;;;;11.54;86.31;99353.22;4506691;31;20155;-71
2022/04/25 05:58:53;;;;;;;12.88;1.70;;;;;;;11.60;85.80;99352.16;4504702;31;20147;-70
2022/04/25 06:01:20;;;;;;;1.45;1.35;;;;;;;11.63;85.17;99352.06;4507028;31;20446;-70
2022/04/25 06:03:48;;;;;;;8.57;1.80;;;;;;;11.72;86.24;99355.25;4508508;31;20530;-71
2022/04/25 06:06:15;;;;;;;2.15;1.62;;;;;;;11.82;85.38;99352.31;4508522;31;20406;-71
2022/04/25 06:08:42;;;;;;;3.72;1.48;;;;;;;11.89;84.12;99359.13;4508903;31;20117;-70
2022/04/25 06:11:09;;;;;;;3.40;1.05;;;;;;;12.03;85.39;99356.91;4509880;31;20154;-71
2022/04/25 06:13:36;;;;;;;16.15;1.23;;;;;;;12.09;83.73;99355.84;4509321;31;20770;-71
2022/04/25 06:16:05;;;;;;;3.40;1.55;;;;;;;12.22;84.80;99354.47;4510669;31;20107;-71
2022/04/25 06:18:32;;;;;;;1.73;1.30;;;;;;;12.29;82.29;99353.34;4502089;31;20083;-70
2022/04/25 06:21:00;;;;;;;3.70;1.40;;;;;;;12.36;83.17;99353.97;4501428;31;20788;-70
2022/04/25 06:23:31;;;;;;;10.88;1.15;;;;;;;12.30;81.20;99347.16;4500640;31;20147;-71
2022/04/25 06:25:59;;;;;;;0.95;0.85;;;;;;;12.36;81.53;99343.41;4500755;31;20174;-72
2022/04/25 06:28:26;;;;;;;2.42;0.90;;;;;;;12.35;80.78;99347.00;4500397;31;20134;-70
2022/04/25 06:30:54;;;;;;;4.47;1.15;;;;;;;12.42;80.45;99343.22;4500018;31;20112;-71
2022/04/25 06:33:21;;;;;;;2.53;0.93;;;;;;;12.54;81.61;99348.03;4504660;31;20159;-70
2022/04/25 06:35:49;;;;;;;1.37;1.00;;;;;;;12.68;80.49;99339.59;4506043;31;20167;-71
2022/04/25 06:38:18;;;;;;;2.58;0.80;;;;;;;12.83;79.24;99354.91;4508168;31;20087;-70
2022/04/25 06:40:46;;;;;;;1.05;0.65;;;;;;;12.81;79.04;99355.88;4507695;31;20092;-70
2022/04/25 06:43:16;;;;;;;3.80;1.20;;;;;;;12.87;78.63;99351.22;4502714;31;20125;-70
2022/04/25 06:45:43;;;;;;;12.07;2.25;;;;;;;12.81;78.16;99354.09;4509540;31;20127;-71
2022/04/25 06:48:11;;;;;;;2.97;0.95;;;;;;;12.96;78.26;99363.22;4503990;31;20107;-70
2022/04/25 06:50:38;;;;;;;1.40;0.90;;;;;;;12.99;77.63;99349.03;4518855;31;20118;-71
2022/04/25 06:53:05;;;;;;;0.95;0.52;;;;;;;13.12;78.43;99361.72;4517897;31;20099;-71
2022/04/25 06:55:33;;;;;;;8.02;1.05;;;;;;;13.28;77.35;99364.66;4513936;31;20450;-70
2022/04/25 06:58:00;;;;;;;1.77;0.68;;;;;;;13.28;76.52;99361.16;4505815;31;20099;-71
2022/04/25 07:00:27;;;;;;;4.30;0.93;;;;;;;13.25;74.49;99362.16;4502631;31;20115;-70
2022/04/25 07:03:04;;;;;;;5.37;0.90;;;;;;;13.35;74.99;99362.63;4502373;31;20091;-71
2022/04/25 07:05:32;;;;;;;6.22;1.10;;;;;;;13.47;76.10;99382.47;4502284;31;20104;-71
2022/04/25 07:07:59;;;;;;;1.50;0.80;;;;;;;13.45;75.57;99376.37;4502617;31;20083;-69
2022/04/25 07:10:27;;;;;;;0.90;0.73;;;;;;;13.62;76.67;99381.84;4502939;31;20087;-69
2022/04/25 07:12:56;;;;;;;0.65;0.52;;;;;;;13.70;72.65;99381.53;4510059;31;20122;-69
2022/04/25 07:15:24;;;;;;;4.45;0.82;;;;;;;13.84;72.70;99372.09;4503455;31;20506;-68
2022/04/25 07:17:55;;;;;;;1.67;0.50;;;;;;;14.00;70.92;99374.13;4502351;31;20192;-69
2022/04/25 07:20:23;;;;;;;1.10;0.70;;;;;;;13.87;71.23;99379.91;4504325;31;20738;-69
2022/04/25 07:31:08;;;;;;;1.62;0.75;;;;;;;14.35;69.12;99377.91;4501854;31;20084;-68
2022/04/25 07:33:36;;;;;;;1.37;0.60;;;;;;;14.34;69.44;99384.97;4501792;31;20095;-69
2022/04/25 07:36:03;;;;;;;0.75;0.70;;;;;;;14.32;69.16;99372.75;4501898;31;20107;-68
2022/04/25 07:38:31;;;;;;;4.85;0.77;;;;;;;14.37;69.05;99375.19;4502124;31;20088;-68
2022/04/25 07:40:59;;;;;;;3.47;0.80;;;;;;;14.59;69.64;99381.28;4501305;31;20115;-68
2022/04/25 07:43:29;;;;;;;3.05;0.85;;;;;;;14.68;67.46;99375.59;4501938;31;20099;-68
2022/04/25 07:45:57;;;;;;;0.70;0.70;;;;;;;14.82;66.41;99386.44;4501556;31;20159;-68
2022/04/25 07:48:25;;;;;;;1.37;0.62;;;;;;;15.13;66.30;99395.66;4501797;31;20075;-69
2022/04/25 07:50:52;;;;;;;1.45;0.98;;;;;;;15.34;66.80;99390.28;4501433;31;20465;-69
2022/04/25 07:53:19;;;;;;;1.30;1.20;;;;;;;15.17;65.37;99394.56;4501664;31;20111;-69
2022/04/25 07:55:47;;;;;;;0.88;0.75;;;;;;;15.45;65.27;99395.94;4502274;31;20169;-69
2022/04/25 07:58:14;;;;;;;2.15;0.90;;;;;;;15.63;64.68;99391.53;4502807;31;20091;-68
2022/04/25 08:00:41;;;;;;;2.90;1.00;;;;;;;15.75;62.35;99393.63;4502170;31;20512;-67
2022/04/25 08:03:09;;;;;;;1.67;1.00;;;;;;;15.67;63.46;99387.81;4487404;31;20096;-68
2022/04/25 08:05:36;;;;;;;1.50;0.77;;;;;;;15.99;64.29;99388.91;4502140;31;20092;-68
2022/04/25 08:08:04;;;;;;;1.75;1.10;;;;;;;15.66;62.77;99397.59;4502167;31;20088;-70
2022/04/25 08:10:31;;;;;;;1.85;0.70;;;;;;;15.54;62.32;99387.50;4501983;31;20084;-69
2022/04/25 08:18:31;;;;;;;6.95;1.23;;;;;;;16.14;61.20;99382.78;4505854;31;19992;-68
2022/04/25 08:20:59;;;;;;;1.20;0.93;;;;;;;16.32;60.26;99390.78;4508845;31;20167;-69
2022/04/25 08:23:26;;;;;;;1.58;0.73;;;;;;;16.31;59.85;99392.56;4510911;31;20104;-69
2022/04/25 08:25:53;;;;;;;1.80;0.50;;;;;;;16.30;61.05;99382.03;4514984;31;20099;-69
2022/04/25 08:28:21;;;;;;;0.50;0.50;;;;;;;16.48;57.94;99389.06;4504039;31;20148;-68
2022/04/25 08:30:48;;;;;;;0.62;0.60;;;;;;;16.63;56.40;99395.38;4501930;31;20152;-69
2022/04/25 08:33:15;;;;;;;1.12;0.40;;;;;;;16.84;54.98;99385.44;4500835;31;21192;-69
2022/04/25 08:35:42;;;;;;;0.35;0.35;;;;;;;16.89;56.22;99384.25;4506088;31;20099;-68
2022/04/25 08:38:10;;;;;;;0.32;0.32;;;;;;;17.19;56.29;99402.16;4509086;31;20083;-69
2022/04/25 08:40:42;;;;;;;0.50;0.50;;;;;;;17.22;53.36;99403.78;4501809;31;20152;-69
2022/04/25 08:43:09;;;;;;;0.57;0.40;;;;;;;17.12;54.04;99396.28;4511503;31;20144;-69
2022/04/25 08:45:38;;;;;;;0.90;0.75;;;;;;;17.08;53.18;99404.53;4507383;31;20513;-69
2022/04/25 08:48:06;;;;;;;0.57;0.57;;;;;;;17.62;52.03;99408.59;4508373;31;20088;-69
2022/04/25 08:50:35;;;;;;;4.97;0.82;;;;;;;17.48;51.99;99415.66;4504903;31;20145;-68
2022/04/25 08:53:02;;;;;;;0.43;0.43;;;;;;;17.14;53.52;99402.41;4504738;31;20491;-69
2022/04/25 08:55:30;;;;;;;3.10;0.65;;;;;;;16.99;51.48;99419.19;4505326;31;20110;-69
2022/04/25 08:57:59;;;;;;;2.33;0.50;;;;;;;16.72;52.55;99416.19;4492072;31;20121;-69
2022/04/25 09:00:26;;;;;;;0.60;0.60;;;;;;;16.85;54.05;99413.75;4509412;31;20124;-70
2022/04/25 09:02:54;;;;;;;0.60;0.60;;;;;;;16.81;55.27;99415.69;4505260;31;20623;-69
2022/04/25 09:05:23;;;;;;;1.23;0.90;;;;;;;16.95;53.84;99412.31;4501522;31;20134;-69
2022/04/25 09:07:51;;;;;;;1.20;0.70;;;;;;;16.90;55.56;99417.03;4502450;31;20134;-68
2022/04/25 09:10:19;;;;;;;1.45;0.90;;;;;;;17.04;55.13;99422.47;4501349;31;20087;-67
2022/04/25 09:12:48;;;;;;;1.62;0.80;;;;;;;17.13;54.51;99421.97;4502126;31;20744;-69
2022/04/25 09:15:20;;;;;;;0.52;0.50;;;;;;;17.25;55.67;99425.78;4500829;31;20143;-70
2022/04/25 09:17:55;;;;;;;2.45;0.32;;;;;;;17.54;55.74;99429.50;4500863;31;20105;-70
2022/04/25 09:20:24;;;;;;;5.00;0.30;;;;;;;17.28;51.80;99432.72;4512782;31;20163;-70
2022/04/25 09:22:52;;;;;;;0.80;0.80;;;;;;;16.72;52.62;99434.78;4490746;31;20119;-70
2022/04/25 09:25:20;;;;;;;0.50;0.50;;;;;;;17.01;53.97;99427.09;4508441;31;20103;-70
2022/04/25 09:28:13;;;;;;;0.40;0.40;;;;;;;17.78;52.46;99429.94;4504522;31;20117;-70
2022/04/25 09:30:57;;;;;;;0.62;0.40;;;;;;;18.26;49.79;99428.06;4504730;31;20416;-70
2022/04/25 09:33:25;;;;;;;0.30;0.30;;;;;;;18.09;51.51;99438.84;4505895;31;20104;-70
2022/04/25 09:35:56;;;;;;;0.30;0.30;;;;;;;18.07;52.14;99444.28;4488825;31;20413;-70
2022/04/25 09:38:32;;;;;;;0.68;0.40;;;;;;;17.87;49.97;99444.53;4506683;31;21015;-70
2022/04/25 09:41:00;;;;;;;0.95;0.60;;;;;;;18.09;48.26;99437.06;4502845;31;20471;-70
2022/04/25 09:43:30;;;;;;;0.95;0.50;;;;;;;18.58;47.94;99438.63;4503833;31;20111;-70
2022/04/25 09:46:20;;;;;;;0.37;0.32;;;;;;;18.95;48.56;99439.97;4507247;31;20099;-70
2022/04/25 09:49:04;;;;;;;0.20;0.20;;;;;;;18.67;47.11;99445.22;4512904;31;20101;-69
2022/04/25 09:51:31;;;;;;;1.02;0.20;;;;;;;17.97;47.80;99445.75;4518117;31;20087;-69
2022/04/25 09:53:58;;;;;;;0.35;0.35;;;;;;;18.29;50.10;99451.87;4504065;31;20112;-69
2022/04/25 09:56:29;;;;;;;0.40;0.40;;;;;;;18.68;48.18;99449.59;4507681;31;20119;-69
2022/04/25 09:59:05;;;;;;;0.43;0.43;;;;;;;19.10;46.94;99454.16;4509368;31;20091;-69
2022/04/25 10:01:39;;;;;;;0.43;0.43;;;;;;;19.11;48.06;99446.06;4492802;31;20096;-70
2022/04/25 10:04:33;;;;;;;0.35;0.35;;;;;;;18.68;48.77;99453.13;4502953;31;20113;-69
2022/04/25 10:07:06;;;;;;;0.40;0.40;;;;;;;18.52;47.62;99453.19;4504588;31;20110;-70
2022/04/25 10:09:35;;;;;;;0.60;0.30;;;;;;;18.80;50.05;99456.91;4511274;31;20133;-69
2022/04/25 10:12:04;;;;;;;0.40;0.40;;;;;;;18.59;46.67;99477.72;4517661;31;20091;-68
2022/04/25 10:14:32;;;;;;;0.45;0.40;;;;;;;18.50;47.07;99476.44;4517288;31;20404;-69
2022/04/25 10:17:00;;;;;;;3.58;0.47;;;;;;;18.64;46.88;99462.28;4518160;31;20155;-69
2022/04/25 10:19:28;;;;;;;2.92;0.80;;;;;;;19.33;47.22;99455.44;4518685;31;20182;-70
2022/04/25 10:21:58;;;;;;;1.42;0.60;;;;;;;19.99;45.97;99465.44;4518856;31;20109;-69
2022/04/25 10:24:25;;;;;;;0.60;0.60;;;;;;;19.01;46.05;99462.72;4519119;31;20795;-69
2022/04/25 10:26:53;;;;;;;1.23;0.60;;;;;;;18.30;48.89;99460.72;4518230;31;20122;-69
2022/04/25 10:29:29;;;;;;;0.82;0.60;;;;;;;18.25;49.29;99465.50;4518267;31;20070;-69
2022/04/25 10:32:00;;;;;;;0.32;0.32;;;;;;;18.15;47.94;99481.16;4516518;31;20162;-68
2022/04/25 10:34:47;;;;;;;0.80;0.45;;;;;;;18.18;49.03;99461.47;4506754;31;20099;-68
2022/04/25 10:37:39;;;;;;;0.50;0.50;;;;;;;18.10;47.89;99468.09;4502461;31;20100;-68
2022/04/25 10:40:08;;;;;;;0.60;0.32;;;;;;;18.27;48.72;99472.47;4502224;31;20115;-69
2022/04/25 10:46:00;;;;;;;2.12;0.57;;;;;;;18.86;47.20;99483.22;4508642;31;20088;-68
2022/04/25 10:48:29;;;;;;;0.57;0.50;;;;;;;19.33;45.70;99477.66;4493846;31;20108;-68
2022/04/25 10:51:10;;;;;;;0.50;0.50;;;;;;;19.22;45.42;99473.91;4502205;31;20083;-67
2022/04/25 10:54:14;;;;;;;2.55;1.02;;;;;;;18.46;46.45;99482.03;4511542;31;20083;-68
2022/04/25 10:57:07;;;;;;;0.50;0.50;;;;;;;18.13;47.49;99491.06;4430469;32;20109;-68
2022/04/25 10:59:37;;;;;;;0.73;0.50;;;;;;;17.95;49.37;99487.62;4477780;31;20116;-67
2022/04/25 11:02:27;;;;;;;0.60;0.60;;;;;;;18.10;48.78;99484.09;4511691;31;20079;-68
2022/04/25 11:05:27;;;;;;;;;;;;;;;18.12;47.93;99494.66;4504280;31;20089;-68
2022/04/25 11:08:24;;;;;;;1.02;0.70;;;;;;;18.24;47.26;99506.44;4465080;31;20002;-67
2022/04/25 11:10:57;;;;;;;1.27;0.65;;;;;;;18.84;46.02;99503.81;4500669;31;20104;-68
2022/04/25 11:13:27;;;;;;;1.02;0.70;;;;;;;19.89;44.27;99509.75;4501002;31;20927;-68
2022/04/25 11:15:56;;;;;;;1.10;0.73;;;;;;;20.47;41.82;99503.28;4500928;31;20163;-68
2022/04/25 11:18:41;;;;;;;1.17;0.77;;;;;;;20.72;41.74;99504.34;4492846;31;20164;-68
2022/04/25 11:21:14;;;;;;;0.45;0.45;;;;;;;21.86;40.26;99511.50;4502094;31;20174;-68
2022/04/25 11:23:44;;;;;;;5.53;0.80;;;;;;;20.97;41.03;99515.09;4509476;31;20468;-68
2022/04/25 11:26:21;;;;;;;0.55;0.55;;;;;;;19.71;43.66;99526.97;4510920;31;20468;-68
2022/04/25 11:28:54;;;;;;;0.65;0.47;;;;;;;19.34;44.43;99526.59;4508937;31;20164;-68
2022/04/25 11:31:24;;;;;;;0.40;0.40;;;;;;;19.47;44.59;99524.88;4508468;31;20430;-68
2022/04/25 11:33:54;;;;;;;9.90;0.80;;;;;;;19.54;44.61;99523.53;4506118;31;20095;-68
2022/04/25 11:36:23;;;;;;;0.68;0.65;;;;;;;19.53;44.53;99532.47;4511511;31;20092;-68
2022/04/25 11:41:39;;;;;;;2.70;0.70;;;;;;;19.64;43.26;99528.31;4504484;31;20759;-68
2022/04/25 11:44:07;;;;;;;0.45;0.45;;;;;;;19.54;44.69;99534.22;4509029;31;20083;-68
2022/04/25 11:46:36;;;;;;;1.02;0.93;;;;;;;20.99;42.21;99528.37;4508861;31;20099;-68
2022/04/25 11:49:06;;;;;;;0.90;0.90;;;;;;;21.31;39.78;99544.91;4508523;31;20113;-69
2022/04/25 11:51:43;;;;;;;3.83;0.80;;;;;;;21.48;40.00;99533.91;4505392;31;20182;-68
2022/04/25 11:54:11;;;;;;;0.50;0.50;;;;;;;21.01;41.18;99540.69;4507257;31;20721;-69
2022/04/25 11:56:40;;;;;;;0.30;0.30;;;;;;;21.13;40.41;99543.47;4507626;31;20091;-69
2022/04/25 11:59:17;;;;;;;1.45;0.30;;;;;;;21.37;38.34;99557.91;4499298;31;20099;-69
2022/04/25 12:01:50;;;;;;;;;;;;;;;21.65;38.99;99539.88;4501224;31;20152;-69
2022/04/25 12:04:23;;;;;;;3.90;1.27;;;;;;;21.96;38.80;99552.78;4502126;31;20042;-69
2022/04/25 12:06:55;;;;;;;0.50;0.50;;;;;;;22.23;38.03;99546.44;4501841;31;20079;-69
2022/04/25 12:15:42;;;;;;;0.55;0.55;;;;;;;25.40;31.96;99539.06;4500738;31;20083;-69
2022/04/25 12:18:25;;;;;;;0.40;0.25;;;;;;;23.68;35.09;99547.94;4502265;31;20091;-69
2022/04/25 12:21:08;;;;;;;4.43;0.50;;;;;;;22.07;35.72;99556.53;4501544;31;20197;-69
2022/04/25 12:23:45;;;;;;;4.40;0.52;;;;;;;21.83;37.71;99560.00;4498695;31;20126;-69